sensor_id;sensor_type;location;lat;lon;timestamp;P1;durP1;ratioP1;P2;durP2;ratioP2
53036;SDS011;38924;52.134;4.666;2022-07-18T00:01:43;964.55;;;869.10;;
53036;SDS011;38924;52.134;4.666;2022-07-18T00:04:09;1018.63;;;916.70;;
53036;SDS011;38924;52.134;4.666;2022-07-18T00:06:35;984.33;;;888.55;;
53036;SDS011;38924;52.134;4.666;2022-07-18T00:09:01;984.15;;;887.67;;
53036;SDS011;38924;52.134;4.666;2022-07-18T00:11:26;1034.05;;;931.85;;
53036;SDS011;38924;52.134;4.666;2022-07-18T00:13:52;1004.95;;;906.70;;
53036;SDS011;38924;52.134;4.666;2022-07-18T00:16:18;1026.65;;;926.63;;
53036;SDS011;38924;52.134;4.666;2022-07-18T00:18:44;993.40;;;899.03;;
53036;SDS011;38924;52.134;4.666;2022-07-18T00:21:09;1013.22;;;912.67;;
53036;SDS011;38924;52.134;4.666;2022-07-18T00:23:35;966.40;;;872.03;;
53036;SDS011;38924;52.134;4.666;2022-07-18T00:26:01;974.30;;;880.38;;
53036;SDS011;38924;52.134;4.666;2022-07-18T00:28:27;926.80;;;839.97;;
53036;SDS011;38924;52.134;4.666;2022-07-18T00:30:52;949.03;;;861.33;;
53036;SDS011;38924;52.134;4.666;2022-07-18T00:33:18;872.92;;;791.72;;
53036;SDS011;38924;52.134;4.666;2022-07-18T00:35:44;984.38;;;889.70;;
53036;SDS011;38924;52.134;4.666;2022-07-18T00:38:09;897.88;;;815.33;;
53036;SDS011;38924;52.134;4.666;2022-07-18T00:40:35;918.85;;;836.22;;
53036;SDS011;38924;52.134;4.666;2022-07-18T00:43:01;979.53;;;886.10;;
53036;SDS011;38924;52.134;4.666;2022-07-18T00:45:27;958.83;;;867.08;;
53036;SDS011;38924;52.134;4.666;2022-07-18T00:47:53;977.15;;;886.05;;
53036;SDS011;38924;52.134;4.666;2022-07-18T00:50:19;913.25;;;827.97;;
53036;SDS011;38924;52.134;4.666;2022-07-18T00:52:46;982.35;;;888.42;;
53036;SDS011;38924;52.134;4.666;2022-07-18T00:55:12;953.17;;;862.88;;
53036;SDS011;38924;52.134;4.666;2022-07-18T00:57:37;966.72;;;873.70;;
53036;SDS011;38924;52.134;4.666;2022-07-18T01:00:05;965.40;;;872.97;;
53036;SDS011;38924;52.134;4.666;2022-07-18T01:02:50;884.45;;;805.80;;
53036;SDS011;38924;52.134;4.666;2022-07-18T01:05:16;939.70;;;854.40;;
53036;SDS011;38924;52.134;4.666;2022-07-18T01:07:45;979.72;;;882.65;;
53036;SDS011;38924;52.134;4.666;2022-07-18T01:10:11;937.15;;;850.63;;
53036;SDS011;38924;52.134;4.666;2022-07-18T01:12:37;965.22;;;875.00;;
53036;SDS011;38924;52.134;4.666;2022-07-18T01:15:03;897.17;;;815.45;;
53036;SDS011;38924;52.134;4.666;2022-07-18T01:17:29;921.97;;;836.33;;
53036;SDS011;38924;52.134;4.666;2022-07-18T01:19:55;872.90;;;794.13;;
53036;SDS011;38924;52.134;4.666;2022-07-18T01:22:21;955.70;;;867.28;;
53036;SDS011;38924;52.134;4.666;2022-07-18T01:24:46;929.15;;;842.50;;
53036;SDS011;38924;52.134;4.666;2022-07-18T01:27:16;902.28;;;821.63;;
53036;SDS011;38924;52.134;4.666;2022-07-18T01:29:43;930.20;;;845.20;;
53036;SDS011;38924;52.134;4.666;2022-07-18T01:32:09;910.90;;;826.85;;
53036;SDS011;38924;52.134;4.666;2022-07-18T01:34:35;946.95;;;859.83;;
53036;SDS011;38924;52.134;4.666;2022-07-18T01:37:01;873.83;;;792.53;;
53036;SDS011;38924;52.134;4.666;2022-07-18T01:39:27;851.88;;;777.58;;
53036;SDS011;38924;52.134;4.666;2022-07-18T01:42:00;935.70;;;848.75;;
53036;SDS011;38924;52.134;4.666;2022-07-18T01:44:27;877.88;;;799.88;;
53036;SDS011;38924;52.134;4.666;2022-07-18T01:46:52;907.97;;;825.75;;
53036;SDS011;38924;52.134;4.666;2022-07-18T01:49:18;841.20;;;767.17;;
53036;SDS011;38924;52.134;4.666;2022-07-18T01:51:45;869.58;;;791.13;;
53036;SDS011;38924;52.134;4.666;2022-07-18T01:54:11;892.15;;;811.60;;
53036;SDS011;38924;52.134;4.666;2022-07-18T01:56:37;877.55;;;798.08;;
53036;SDS011;38924;52.134;4.666;2022-07-18T01:59:02;911.83;;;828.85;;
53036;SDS011;38924;52.134;4.666;2022-07-18T02:01:28;840.63;;;766.22;;
53036;SDS011;38924;52.134;4.666;2022-07-18T02:03:54;855.70;;;779.88;;
53036;SDS011;38924;52.134;4.666;2022-07-18T02:06:20;851.97;;;775.88;;
53036;SDS011;38924;52.134;4.666;2022-07-18T02:08:45;865.92;;;788.15;;
53036;SDS011;38924;52.134;4.666;2022-07-18T02:11:14;915.20;;;835.10;;
53036;SDS011;38924;52.134;4.666;2022-07-18T02:13:40;891.13;;;809.75;;
53036;SDS011;38924;52.134;4.666;2022-07-18T02:16:05;864.05;;;788.08;;
53036;SDS011;38924;52.134;4.666;2022-07-18T02:18:31;851.00;;;776.22;;
53036;SDS011;38924;52.134;4.666;2022-07-18T02:20:58;849.60;;;775.40;;
53036;SDS011;38924;52.134;4.666;2022-07-18T02:23:24;857.53;;;782.53;;
53036;SDS011;38924;52.134;4.666;2022-07-18T02:25:52;813.13;;;741.72;;
53036;SDS011;38924;52.134;4.666;2022-07-18T02:28:18;836.25;;;763.35;;
53036;SDS011;38924;52.134;4.666;2022-07-18T02:30:47;815.92;;;745.47;;
53036;SDS011;38924;52.134;4.666;2022-07-18T02:33:14;821.25;;;751.55;;
53036;SDS011;38924;52.134;4.666;2022-07-18T02:35:40;871.42;;;794.55;;
53036;SDS011;38924;52.134;4.666;2022-07-18T02:38:06;858.08;;;782.70;;
53036;SDS011;38924;52.134;4.666;2022-07-18T02:40:31;828.25;;;755.38;;
53036;SDS011;38924;52.134;4.666;2022-07-18T02:42:57;829.30;;;756.63;;
53036;SDS011;38924;52.134;4.666;2022-07-18T02:45:23;825.95;;;753.70;;
53036;SDS011;38924;52.134;4.666;2022-07-18T02:47:48;817.10;;;746.70;;
53036;SDS011;38924;52.134;4.666;2022-07-18T02:50:14;851.30;;;775.70;;
53036;SDS011;38924;52.134;4.666;2022-07-18T02:52:40;834.53;;;758.97;;
53036;SDS011;38924;52.134;4.666;2022-07-18T02:55:09;831.47;;;758.45;;
53036;SDS011;38924;52.134;4.666;2022-07-18T02:57:35;779.63;;;713.75;;
53036;SDS011;38924;52.134;4.666;2022-07-18T03:00:01;836.28;;;763.88;;
53036;SDS011;38924;52.134;4.666;2022-07-18T03:02:32;797.90;;;728.95;;
53036;SDS011;38924;52.134;4.666;2022-07-18T03:05:01;805.03;;;733.00;;
53036;SDS011;38924;52.134;4.666;2022-07-18T03:07:27;827.30;;;754.67;;
53036;SDS011;38924;52.134;4.666;2022-07-18T03:09:53;797.30;;;727.25;;
53036;SDS011;38924;52.134;4.666;2022-07-18T03:12:19;825.97;;;753.10;;
53036;SDS011;38924;52.134;4.666;2022-07-18T03:14:44;793.70;;;726.47;;
53036;SDS011;38924;52.134;4.666;2022-07-18T03:17:10;803.42;;;734.53;;
53036;SDS011;38924;52.134;4.666;2022-07-18T03:19:36;870.45;;;794.08;;
53036;SDS011;38924;52.134;4.666;2022-07-18T03:22:03;856.88;;;782.97;;
53036;SDS011;38924;52.134;4.666;2022-07-18T03:24:31;839.53;;;765.83;;
53036;SDS011;38924;52.134;4.666;2022-07-18T03:26:57;846.03;;;770.92;;
53036;SDS011;38924;52.134;4.666;2022-07-18T03:29:23;837.40;;;765.85;;
53036;SDS011;38924;52.134;4.666;2022-07-18T03:31:52;813.97;;;744.35;;
53036;SDS011;38924;52.134;4.666;2022-07-18T03:34:18;858.28;;;784.42;;
53036;SDS011;38924;52.134;4.666;2022-07-18T03:36:44;804.83;;;736.30;;
53036;SDS011;38924;52.134;4.666;2022-07-18T03:39:10;827.15;;;756.72;;
53036;SDS011;38924;52.134;4.666;2022-07-18T03:41:36;797.17;;;727.33;;
53036;SDS011;38924;52.134;4.666;2022-07-18T03:44:02;832.67;;;762.28;;
53036;SDS011;38924;52.134;4.666;2022-07-18T03:46:30;798.78;;;728.78;;
53036;SDS011;38924;52.134;4.666;2022-07-18T03:48:56;804.95;;;736.05;;
53036;SDS011;38924;52.134;4.666;2022-07-18T03:51:22;813.70;;;744.67;;
53036;SDS011;38924;52.134;4.666;2022-07-18T03:53:48;819.88;;;751.05;;
53036;SDS011;38924;52.134;4.666;2022-07-18T03:56:14;788.80;;;721.45;;
53036;SDS011;38924;52.134;4.666;2022-07-18T03:58:39;790.08;;;721.45;;
53036;SDS011;38924;52.134;4.666;2022-07-18T04:01:05;779.97;;;714.35;;
53036;SDS011;38924;52.134;4.666;2022-07-18T04:03:31;810.33;;;740.67;;
53036;SDS011;38924;52.134;4.666;2022-07-18T04:05:56;798.47;;;729.30;;
53036;SDS011;38924;52.134;4.666;2022-07-18T04:08:22;781.03;;;714.63;;
53036;SDS011;38924;52.134;4.666;2022-07-18T04:10:47;781.90;;;716.70;;
53036;SDS011;38924;52.134;4.666;2022-07-18T04:13:14;798.42;;;730.53;;
53036;SDS011;38924;52.134;4.666;2022-07-18T04:15:39;793.63;;;725.80;;
53036;SDS011;38924;52.134;4.666;2022-07-18T04:18:05;781.50;;;716.03;;
53036;SDS011;38924;52.134;4.666;2022-07-18T04:20:32;786.55;;;719.40;;
53036;SDS011;38924;52.134;4.666;2022-07-18T04:22:58;785.45;;;718.08;;
53036;SDS011;38924;52.134;4.666;2022-07-18T04:25:25;766.60;;;702.80;;
53036;SDS011;38924;52.134;4.666;2022-07-18T04:27:51;772.28;;;705.78;;
53036;SDS011;38924;52.134;4.666;2022-07-18T04:30:18;792.63;;;724.72;;
53036;SDS011;38924;52.134;4.666;2022-07-18T04:32:44;816.13;;;744.15;;
53036;SDS011;38924;52.134;4.666;2022-07-18T04:35:10;773.83;;;707.58;;
53036;SDS011;38924;52.134;4.666;2022-07-18T04:37:42;759.45;;;694.28;;
53036;SDS011;38924;52.134;4.666;2022-07-18T04:40:11;753.53;;;689.08;;
53036;SDS011;38924;52.134;4.666;2022-07-18T04:42:37;759.25;;;694.95;;
53036;SDS011;38924;52.134;4.666;2022-07-18T04:45:03;743.95;;;679.70;;
53036;SDS011;38924;52.134;4.666;2022-07-18T04:47:30;771.45;;;707.90;;
53036;SDS011;38924;52.134;4.666;2022-07-18T04:49:56;741.22;;;679.53;;
53036;SDS011;38924;52.134;4.666;2022-07-18T04:55:16;755.28;;;692.25;;
53036;SDS011;38924;52.134;4.666;2022-07-18T04:57:42;766.05;;;701.03;;
53036;SDS011;38924;52.134;4.666;2022-07-18T05:00:10;792.20;;;725.55;;
53036;SDS011;38924;52.134;4.666;2022-07-18T05:02:39;776.53;;;712.10;;
53036;SDS011;38924;52.134;4.666;2022-07-18T05:05:08;773.08;;;710.03;;
53036;SDS011;38924;52.134;4.666;2022-07-18T05:07:35;781.40;;;715.70;;
53036;SDS011;38924;52.134;4.666;2022-07-18T05:10:00;772.63;;;707.92;;
53036;SDS011;38924;52.134;4.666;2022-07-18T05:12:29;734.78;;;671.35;;
53036;SDS011;38924;52.134;4.666;2022-07-18T05:14:55;752.55;;;689.88;;
53036;SDS011;38924;52.134;4.666;2022-07-18T05:17:30;784.40;;;718.53;;
53036;SDS011;38924;52.134;4.666;2022-07-18T05:19:55;760.83;;;696.75;;
53036;SDS011;38924;52.134;4.666;2022-07-18T05:22:21;805.13;;;738.38;;
53036;SDS011;38924;52.134;4.666;2022-07-18T05:24:47;783.47;;;715.88;;
53036;SDS011;38924;52.134;4.666;2022-07-18T05:27:12;774.78;;;708.10;;
53036;SDS011;38924;52.134;4.666;2022-07-18T05:29:38;790.92;;;721.60;;
53036;SDS011;38924;52.134;4.666;2022-07-18T05:32:04;775.60;;;707.58;;
53036;SDS011;38924;52.134;4.666;2022-07-18T05:34:30;796.92;;;728.50;;
53036;SDS011;38924;52.134;4.666;2022-07-18T05:36:55;847.08;;;774.15;;
53036;SDS011;38924;52.134;4.666;2022-07-18T05:39:21;781.72;;;713.75;;
53036;SDS011;38924;52.134;4.666;2022-07-18T05:41:47;799.25;;;731.17;;
53036;SDS011;38924;52.134;4.666;2022-07-18T05:44:13;809.50;;;738.92;;
53036;SDS011;38924;52.134;4.666;2022-07-18T05:46:39;749.88;;;684.70;;
53036;SDS011;38924;52.134;4.666;2022-07-18T05:49:05;784.88;;;718.00;;
53036;SDS011;38924;52.134;4.666;2022-07-18T05:51:31;796.75;;;728.25;;
53036;SDS011;38924;52.134;4.666;2022-07-18T05:53:56;842.90;;;768.67;;
53036;SDS011;38924;52.134;4.666;2022-07-18T05:56:22;771.22;;;704.40;;
53036;SDS011;38924;52.134;4.666;2022-07-18T05:58:48;852.67;;;777.72;;
53036;SDS011;38924;52.134;4.666;2022-07-18T06:01:13;832.95;;;758.92;;
53036;SDS011;38924;52.134;4.666;2022-07-18T06:03:48;840.22;;;766.60;;
53036;SDS011;38924;52.134;4.666;2022-07-18T06:06:14;895.72;;;814.22;;
53036;SDS011;38924;52.134;4.666;2022-07-18T06:08:39;946.72;;;859.40;;
53036;SDS011;38924;52.134;4.666;2022-07-18T06:11:05;1016.88;;;918.58;;
53036;SDS011;38924;52.134;4.666;2022-07-18T06:13:33;1000.33;;;902.97;;
53036;SDS011;38924;52.134;4.666;2022-07-18T06:15:59;1097.43;;;984.97;;
53036;SDS011;38924;52.134;4.666;2022-07-18T06:18:25;1131.65;;;999.90;;
53036;SDS011;38924;52.134;4.666;2022-07-18T06:20:50;1105.28;;;989.95;;
53036;SDS011;38924;52.134;4.666;2022-07-18T06:23:16;1217.78;;;999.90;;
53036;SDS011;38924;52.134;4.666;2022-07-18T06:25:42;1197.90;;;999.90;;
53036;SDS011;38924;52.134;4.666;2022-07-18T06:28:07;1189.20;;;999.90;;
53036;SDS011;38924;52.134;4.666;2022-07-18T06:30:33;1265.65;;;999.90;;
53036;SDS011;38924;52.134;4.666;2022-07-18T06:32:59;1168.30;;;999.90;;
53036;SDS011;38924;52.134;4.666;2022-07-18T06:35:24;1304.53;;;999.90;;
53036;SDS011;38924;52.134;4.666;2022-07-18T06:37:50;1296.47;;;999.90;;
53036;SDS011;38924;52.134;4.666;2022-07-18T06:40:16;1313.38;;;999.90;;
53036;SDS011;38924;52.134;4.666;2022-07-18T06:42:41;1189.82;;;999.90;;
53036;SDS011;38924;52.134;4.666;2022-07-18T06:45:07;1373.97;;;999.90;;
53036;SDS011;38924;52.134;4.666;2022-07-18T06:47:33;1388.88;;;999.90;;
53036;SDS011;38924;52.134;4.666;2022-07-18T06:49:59;1308.95;;;999.90;;
53036;SDS011;38924;52.134;4.666;2022-07-18T06:52:24;1380.38;;;999.90;;
53036;SDS011;38924;52.134;4.666;2022-07-18T06:54:50;1399.60;;;999.90;;
53036;SDS011;38924;52.134;4.666;2022-07-18T06:57:15;1298.57;;;999.90;;
53036;SDS011;38924;52.134;4.666;2022-07-18T06:59:41;1435.65;;;999.90;;
53036;SDS011;38924;52.134;4.666;2022-07-18T07:02:07;1408.43;;;999.90;;
53036;SDS011;38924;52.134;4.666;2022-07-18T07:04:32;1281.07;;;999.90;;
53036;SDS011;38924;52.134;4.666;2022-07-18T07:06:58;1292.25;;;999.90;;
53036;SDS011;38924;52.134;4.666;2022-07-18T07:09:24;1424.80;;;999.90;;
53036;SDS011;38924;52.134;4.666;2022-07-18T07:11:49;1400.07;;;999.90;;
53036;SDS011;38924;52.134;4.666;2022-07-18T07:14:15;1372.55;;;999.90;;
53036;SDS011;38924;52.134;4.666;2022-07-18T07:16:41;1436.53;;;999.90;;
53036;SDS011;38924;52.134;4.666;2022-07-18T07:19:06;1293.20;;;999.90;;
53036;SDS011;38924;52.134;4.666;2022-07-18T07:21:32;1319.28;;;999.90;;
53036;SDS011;38924;52.134;4.666;2022-07-18T07:23:58;1336.90;;;999.90;;
53036;SDS011;38924;52.134;4.666;2022-07-18T07:26:26;1238.25;;;999.90;;
53036;SDS011;38924;52.134;4.666;2022-07-18T07:28:52;1456.70;;;999.90;;
53036;SDS011;38924;52.134;4.666;2022-07-18T07:31:18;1474.20;;;999.90;;
53036;SDS011;38924;52.134;4.666;2022-07-18T07:33:44;1377.95;;;999.90;;
53036;SDS011;38924;52.134;4.666;2022-07-18T07:36:10;1421.03;;;999.90;;
53036;SDS011;38924;52.134;4.666;2022-07-18T07:38:36;1286.45;;;999.90;;
53036;SDS011;38924;52.134;4.666;2022-07-18T07:41:02;1375.68;;;999.90;;
53036;SDS011;38924;52.134;4.666;2022-07-18T07:43:28;1380.20;;;999.90;;
53036;SDS011;38924;52.134;4.666;2022-07-18T07:45:54;1321.07;;;999.90;;
53036;SDS011;38924;52.134;4.666;2022-07-18T07:48:21;1423.30;;;999.90;;
53036;SDS011;38924;52.134;4.666;2022-07-18T07:50:47;1422.68;;;999.90;;
53036;SDS011;38924;52.134;4.666;2022-07-18T07:53:13;1369.88;;;999.90;;
53036;SDS011;38924;52.134;4.666;2022-07-18T07:55:38;1438.05;;;999.90;;
53036;SDS011;38924;52.134;4.666;2022-07-18T07:58:05;1420.90;;;999.90;;
53036;SDS011;38924;52.134;4.666;2022-07-18T08:00:31;1414.07;;;999.90;;
53036;SDS011;38924;52.134;4.666;2022-07-18T08:02:58;1438.55;;;999.90;;
53036;SDS011;38924;52.134;4.666;2022-07-18T08:05:24;1430.38;;;999.90;;
53036;SDS011;38924;52.134;4.666;2022-07-18T08:07:50;1432.70;;;999.90;;
53036;SDS011;38924;52.134;4.666;2022-07-18T08:10:15;1354.68;;;999.90;;
53036;SDS011;38924;52.134;4.666;2022-07-18T08:12:41;1530.57;;;999.90;;
53036;SDS011;38924;52.134;4.666;2022-07-18T08:15:07;1437.65;;;999.90;;
53036;SDS011;38924;52.134;4.666;2022-07-18T08:17:34;1425.00;;;999.90;;
53036;SDS011;38924;52.134;4.666;2022-07-18T08:20:02;1462.72;;;999.90;;
53036;SDS011;38924;52.134;4.666;2022-07-18T08:22:28;1401.63;;;999.90;;
53036;SDS011;38924;52.134;4.666;2022-07-18T08:24:54;1466.47;;;999.90;;
53036;SDS011;38924;52.134;4.666;2022-07-18T08:27:20;1440.78;;;999.90;;
53036;SDS011;38924;52.134;4.666;2022-07-18T08:29:45;1464.97;;;999.90;;
53036;SDS011;38924;52.134;4.666;2022-07-18T08:32:11;1476.40;;;999.90;;
53036;SDS011;38924;52.134;4.666;2022-07-18T08:34:38;1459.88;;;999.90;;
53036;SDS011;38924;52.134;4.666;2022-07-18T08:37:04;1453.05;;;999.90;;
53036;SDS011;38924;52.134;4.666;2022-07-18T08:39:30;1580.07;;;999.90;;
53036;SDS011;38924;52.134;4.666;2022-07-18T08:41:56;1472.50;;;999.90;;
53036;SDS011;38924;52.134;4.666;2022-07-18T08:44:24;1449.05;;;999.90;;
53036;SDS011;38924;52.134;4.666;2022-07-18T08:46:50;1415.40;;;999.90;;
53036;SDS011;38924;52.134;4.666;2022-07-18T08:49:16;1465.28;;;999.90;;
53036;SDS011;38924;52.134;4.666;2022-07-18T08:51:42;1500.75;;;999.90;;
53036;SDS011;38924;52.134;4.666;2022-07-18T08:54:08;1448.53;;;999.90;;
53036;SDS011;38924;52.134;4.666;2022-07-18T08:56:34;1473.70;;;999.90;;
53036;SDS011;38924;52.134;4.666;2022-07-18T08:59:03;1475.82;;;999.90;;
53036;SDS011;38924;52.134;4.666;2022-07-18T09:01:29;1485.63;;;999.90;;
53036;SDS011;38924;52.134;4.666;2022-07-18T09:03:55;1480.30;;;999.90;;
53036;SDS011;38924;52.134;4.666;2022-07-18T09:06:46;1431.13;;;999.90;;
53036;SDS011;38924;52.134;4.666;2022-07-18T09:09:13;1436.25;;;999.90;;
53036;SDS011;38924;52.134;4.666;2022-07-18T09:11:52;1529.55;;;999.90;;
53036;SDS011;38924;52.134;4.666;2022-07-18T09:14:34;1570.55;;;999.90;;
53036;SDS011;38924;52.134;4.666;2022-07-18T09:19:27;1407.00;;;999.90;;
53036;SDS011;38924;52.134;4.666;2022-07-18T09:21:52;1515.03;;;999.90;;
53036;SDS011;38924;52.134;4.666;2022-07-18T09:24:18;1459.43;;;999.90;;
53036;SDS011;38924;52.134;4.666;2022-07-18T09:26:44;1479.43;;;999.90;;
53036;SDS011;38924;52.134;4.666;2022-07-18T09:29:15;1409.40;;;999.90;;
53036;SDS011;38924;52.134;4.666;2022-07-18T09:31:48;1470.18;;;999.90;;
53036;SDS011;38924;52.134;4.666;2022-07-18T09:34:13;1471.77;;;999.90;;
53036;SDS011;38924;52.134;4.666;2022-07-18T09:36:53;1437.65;;;999.90;;
53036;SDS011;38924;52.134;4.666;2022-07-18T09:39:19;1449.88;;;999.90;;
53036;SDS011;38924;52.134;4.666;2022-07-18T09:41:48;1472.75;;;999.90;;
53036;SDS011;38924;52.134;4.666;2022-07-18T09:44:14;1421.32;;;999.90;;
53036;SDS011;38924;52.134;4.666;2022-07-18T09:46:59;1406.57;;;999.90;;
53036;SDS011;38924;52.134;4.666;2022-07-18T09:49:29;1437.05;;;999.90;;
53036;SDS011;38924;52.134;4.666;2022-07-18T09:52:07;1415.28;;;999.90;;
53036;SDS011;38924;52.134;4.666;2022-07-18T09:54:43;1443.97;;;999.90;;
53036;SDS011;38924;52.134;4.666;2022-07-18T09:57:09;1402.72;;;999.90;;
53036;SDS011;38924;52.134;4.666;2022-07-18T09:59:35;1432.80;;;999.90;;
53036;SDS011;38924;52.134;4.666;2022-07-18T10:02:02;1419.45;;;999.90;;
53036;SDS011;38924;52.134;4.666;2022-07-18T10:04:28;1486.75;;;999.90;;
53036;SDS011;38924;52.134;4.666;2022-07-18T10:06:53;1451.20;;;999.90;;
53036;SDS011;38924;52.134;4.666;2022-07-18T10:09:19;1374.22;;;999.90;;
53036;SDS011;38924;52.134;4.666;2022-07-18T10:11:45;1447.18;;;999.90;;
53036;SDS011;38924;52.134;4.666;2022-07-18T10:14:14;1419.22;;;999.90;;
53036;SDS011;38924;52.134;4.666;2022-07-18T10:16:40;1446.65;;;999.90;;
53036;SDS011;38924;52.134;4.666;2022-07-18T10:19:07;1464.60;;;999.90;;
53036;SDS011;38924;52.134;4.666;2022-07-18T10:21:32;1447.18;;;999.90;;
53036;SDS011;38924;52.134;4.666;2022-07-18T10:23:59;1421.80;;;999.90;;
53036;SDS011;38924;52.134;4.666;2022-07-18T10:26:26;1411.07;;;999.90;;
53036;SDS011;38924;52.134;4.666;2022-07-18T10:31:24;1385.82;;;999.90;;
53036;SDS011;38924;52.134;4.666;2022-07-18T10:33:51;1384.97;;;999.90;;
53036;SDS011;38924;52.134;4.666;2022-07-18T10:36:17;1435.68;;;999.90;;
53036;SDS011;38924;52.134;4.666;2022-07-18T10:41:27;1398.38;;;999.90;;
53036;SDS011;38924;52.134;4.666;2022-07-18T10:43:53;1380.15;;;999.90;;
53036;SDS011;38924;52.134;4.666;2022-07-18T10:46:19;1468.20;;;999.90;;
53036;SDS011;38924;52.134;4.666;2022-07-18T10:48:48;1439.30;;;999.90;;
53036;SDS011;38924;52.134;4.666;2022-07-18T10:51:15;1406.38;;;999.90;;
53036;SDS011;38924;52.134;4.666;2022-07-18T10:58:56;1479.25;;;999.90;;
53036;SDS011;38924;52.134;4.666;2022-07-18T11:01:23;1491.68;;;999.90;;
53036;SDS011;38924;52.134;4.666;2022-07-18T11:03:48;1483.47;;;999.90;;
53036;SDS011;38924;52.134;4.666;2022-07-18T11:06:15;1409.03;;;999.90;;
53036;SDS011;38924;52.134;4.666;2022-07-18T11:08:43;1404.53;;;999.90;;
53036;SDS011;38924;52.134;4.666;2022-07-18T11:11:09;1405.45;;;999.90;;
53036;SDS011;38924;52.134;4.666;2022-07-18T11:13:37;1441.82;;;999.90;;
53036;SDS011;38924;52.134;4.666;2022-07-18T11:21:16;1368.68;;;999.90;;
53036;SDS011;38924;52.134;4.666;2022-07-18T11:23:42;1461.63;;;999.90;;
53036;SDS011;38924;52.134;4.666;2022-07-18T11:26:13;1481.32;;;999.90;;
53036;SDS011;38924;52.134;4.666;2022-07-18T11:28:42;1504.53;;;999.90;;
53036;SDS011;38924;52.134;4.666;2022-07-18T11:31:09;1476.00;;;999.90;;
53036;SDS011;38924;52.134;4.666;2022-07-18T11:33:36;1410.32;;;999.90;;
53036;SDS011;38924;52.134;4.666;2022-07-18T11:36:07;1410.03;;;999.90;;
53036;SDS011;38924;52.134;4.666;2022-07-18T11:38:33;1420.40;;;999.90;;
53036;SDS011;38924;52.134;4.666;2022-07-18T11:41:00;1419.22;;;999.90;;
53036;SDS011;38924;52.134;4.666;2022-07-18T11:43:27;1464.93;;;999.90;;
53036;SDS011;38924;52.134;4.666;2022-07-18T11:46:02;1480.93;;;999.90;;
53036;SDS011;38924;52.134;4.666;2022-07-18T11:48:28;1413.28;;;999.90;;
53036;SDS011;38924;52.134;4.666;2022-07-18T11:50:57;1446.90;;;999.90;;
53036;SDS011;38924;52.134;4.666;2022-07-18T11:53:23;1425.32;;;999.90;;
53036;SDS011;38924;52.134;4.666;2022-07-18T11:55:52;1380.07;;;999.90;;
53036;SDS011;38924;52.134;4.666;2022-07-18T11:58:18;1445.82;;;999.90;;
53036;SDS011;38924;52.134;4.666;2022-07-18T12:00:44;1533.10;;;999.90;;
53036;SDS011;38924;52.134;4.666;2022-07-18T12:03:22;1444.57;;;999.90;;
53036;SDS011;38924;52.134;4.666;2022-07-18T12:05:50;1467.40;;;999.90;;
53036;SDS011;38924;52.134;4.666;2022-07-18T12:11:46;1443.10;;;999.90;;
53036;SDS011;38924;52.134;4.666;2022-07-18T12:18:55;1463.07;;;999.90;;
53036;SDS011;38924;52.134;4.666;2022-07-18T12:21:21;1373.00;;;999.90;;
53036;SDS011;38924;52.134;4.666;2022-07-18T12:23:46;1450.03;;;999.90;;
53036;SDS011;38924;52.134;4.666;2022-07-18T12:26:28;1430.18;;;999.90;;
53036;SDS011;38924;52.134;4.666;2022-07-18T12:29:06;1402.18;;;999.90;;
53036;SDS011;38924;52.134;4.666;2022-07-18T12:31:42;1453.70;;;999.90;;
53036;SDS011;38924;52.134;4.666;2022-07-18T12:34:11;1442.78;;;999.90;;
53036;SDS011;38924;52.134;4.666;2022-07-18T12:39:35;1446.72;;;999.90;;
53036;SDS011;38924;52.134;4.666;2022-07-18T12:42:01;1425.55;;;999.90;;
53036;SDS011;38924;52.134;4.666;2022-07-18T12:44:27;1407.00;;;999.90;;
53036;SDS011;38924;52.134;4.666;2022-07-18T12:46:53;1465.80;;;999.90;;
53036;SDS011;38924;52.134;4.666;2022-07-18T12:49:19;1434.57;;;999.90;;
53036;SDS011;38924;52.134;4.666;2022-07-18T12:51:45;1419.32;;;999.90;;
53036;SDS011;38924;52.134;4.666;2022-07-18T12:54:10;1414.25;;;999.90;;
53036;SDS011;38924;52.134;4.666;2022-07-18T12:56:37;1463.18;;;999.90;;
53036;SDS011;38924;52.134;4.666;2022-07-18T12:59:02;1420.55;;;999.90;;
53036;SDS011;38924;52.134;4.666;2022-07-18T13:01:28;1449.85;;;999.90;;
53036;SDS011;38924;52.134;4.666;2022-07-18T13:03:54;1391.65;;;999.90;;
53036;SDS011;38924;52.134;4.666;2022-07-18T13:06:19;1448.57;;;999.90;;
53036;SDS011;38924;52.134;4.666;2022-07-18T13:08:45;1475.80;;;999.90;;
53036;SDS011;38924;52.134;4.666;2022-07-18T13:11:11;1426.85;;;999.90;;
53036;SDS011;38924;52.134;4.666;2022-07-18T13:13:37;1365.63;;;999.90;;
53036;SDS011;38924;52.134;4.666;2022-07-18T13:16:02;1468.68;;;999.90;;
53036;SDS011;38924;52.134;4.666;2022-07-18T13:18:28;1399.60;;;999.90;;
53036;SDS011;38924;52.134;4.666;2022-07-18T13:20:54;1532.03;;;999.90;;
53036;SDS011;38924;52.134;4.666;2022-07-18T13:23:20;1426.93;;;999.90;;
53036;SDS011;38924;52.134;4.666;2022-07-18T13:25:45;1430.50;;;999.90;;
53036;SDS011;38924;52.134;4.666;2022-07-18T13:28:13;1458.82;;;999.90;;
53036;SDS011;38924;52.134;4.666;2022-07-18T13:30:39;1409.20;;;999.90;;
53036;SDS011;38924;52.134;4.666;2022-07-18T13:33:05;1480.68;;;999.90;;
53036;SDS011;38924;52.134;4.666;2022-07-18T13:35:31;1428.32;;;999.90;;
53036;SDS011;38924;52.134;4.666;2022-07-18T13:37:56;1411.32;;;999.90;;
53036;SDS011;38924;52.134;4.666;2022-07-18T13:40:22;1491.53;;;999.90;;
53036;SDS011;38924;52.134;4.666;2022-07-18T13:42:48;1447.43;;;999.90;;
53036;SDS011;38924;52.134;4.666;2022-07-18T13:45:13;1472.25;;;999.90;;
53036;SDS011;38924;52.134;4.666;2022-07-18T13:47:41;1460.95;;;999.90;;
53036;SDS011;38924;52.134;4.666;2022-07-18T13:50:07;1456.25;;;999.90;;
53036;SDS011;38924;52.134;4.666;2022-07-18T13:52:33;1504.32;;;999.90;;
53036;SDS011;38924;52.134;4.666;2022-07-18T13:54:59;1475.43;;;999.90;;
53036;SDS011;38924;52.134;4.666;2022-07-18T13:57:24;1457.55;;;999.90;;
53036;SDS011;38924;52.134;4.666;2022-07-18T13:59:50;1465.00;;;999.90;;
53036;SDS011;38924;52.134;4.666;2022-07-18T14:02:16;1506.07;;;999.90;;
53036;SDS011;38924;52.134;4.666;2022-07-18T14:04:44;1465.70;;;999.90;;
53036;SDS011;38924;52.134;4.666;2022-07-18T14:07:10;1447.88;;;999.90;;
53036;SDS011;38924;52.134;4.666;2022-07-18T14:09:37;1492.25;;;999.90;;
53036;SDS011;38924;52.134;4.666;2022-07-18T14:12:03;1537.40;;;999.90;;
53036;SDS011;38924;52.134;4.666;2022-07-18T14:14:29;1490.07;;;999.90;;
53036;SDS011;38924;52.134;4.666;2022-07-18T14:16:55;1499.18;;;999.90;;
53036;SDS011;38924;52.134;4.666;2022-07-18T14:19:20;1470.38;;;999.90;;